Time;durP1;ratioP1;P1;durP2;ratioP2;P2;SDS_P1;SDS_P2;PMS_P1;PMS_P2;Temp;Humidity;BMP_temperature;BMP_pressure;BME280_temperature;BME280_humidity;BME280_pressure;Samples;Min_cycle;Max_cycle;Signal;HPM_P1;HPM_P2
2023/03/19 00:02:06;;;;;;;4.00;1.73;;;11.20;99.90;;;;;;5099487;28;20725;-59
2023/03/19 00:04:45;;;;;;;2.03;1.40;;;11.20;99.90;;;;;;5096592;28;20201;-60
2023/03/19 00:07:12;;;;;;;2.50;1.40;;;11.20;99.90;;;;;;5100116;28;20275;-59
2023/03/19 00:09:39;;;;;;;3.63;1.80;;;11.20;99.90;;;;;;5100278;28;20300;-59
2023/03/19 00:12:07;;;;;;;2.83;1.47;;;11.20;99.90;;;;;;5099990;27;20214;-59
2023/03/19 00:14:34;;;;;;;1.73;1.20;;;11.20;99.90;;;;;;5097849;28;20238;-59
2023/03/19 00:17:01;;;;;;;2.87;1.80;;;11.20;99.90;;;;;;5098723;28;20658;-59
2023/03/19 00:19:28;;;;;;;2.90;1.60;;;11.20;99.90;;;;;;5101171;28;20767;-60
2023/03/19 00:21:55;;;;;;;2.67;1.97;;;11.20;99.90;;;;;;5098742;28;20206;-59
2023/03/19 00:24:22;;;;;;;3.47;1.90;;;11.10;99.90;;;;;;5097530;28;20638;-59
2023/03/19 00:26:49;;;;;;;3.47;1.80;;;11.20;99.90;;;;;;5099748;28;20589;-60
2023/03/19 00:29:16;;;;;;;2.93;1.90;;;11.10;99.90;;;;;;5101458;28;20292;-59
2023/03/19 00:31:44;;;;;;;3.80;2.20;;;11.10;99.90;;;;;;5096697;28;20295;-65
2023/03/19 00:34:12;;;;;;;1.83;1.63;;;11.20;99.90;;;;;;5098192;27;20260;-59
2023/03/19 00:36:39;;;;;;;2.10;1.90;;;11.20;99.90;;;;;;5098269;28;20194;-59
2023/03/19 00:39:06;;;;;;;2.47;1.80;;;11.20;99.90;;;;;;5097609;28;20254;-59
2023/03/19 00:41:33;;;;;;;2.27;2.03;;;11.20;99.90;;;;;;5095522;28;20202;-60
2023/03/19 00:44:00;;;;;;;3.03;2.10;;;11.10;99.90;;;;;;5100216;28;20582;-60
2023/03/19 00:46:27;;;;;;;4.40;1.80;;;11.20;99.90;;;;;;5096385;28;20321;-60
2023/03/19 00:48:54;;;;;;;4.03;2.13;;;11.20;99.90;;;;;;5096854;28;20197;-59
2023/03/19 00:51:22;;;;;;;3.27;2.17;;;11.20;99.90;;;;;;5096746;28;20597;-59
2023/03/19 00:53:50;;;;;;;2.77;2.20;;;11.20;99.90;;;;;;5098756;28;20736;-59
2023/03/19 00:56:18;;;;;;;2.30;2.10;;;11.10;99.90;;;;;;5092712;28;20296;-60
2023/03/19 00:58:45;;;;;;;1.97;1.77;;;11.10;99.90;;;;;;5095351;28;20209;-59
2023/03/19 01:01:16;;;;;;;4.17;2.20;;;11.20;99.90;;;;;;5098057;28;20214;-60
2023/03/19 01:03:44;;;;;;;2.10;1.80;;;11.10;99.90;;;;;;5097746;28;20829;-59
2023/03/19 01:06:12;;;;;;;2.50;2.30;;;11.10;99.90;;;;;;5096667;28;20666;-60
2023/03/19 01:08:39;;;;;;;3.97;2.20;;;11.10;99.90;;;;;;5098803;28;20195;-59
2023/03/19 01:11:09;;;;;;;3.80;2.10;;;11.10;99.90;;;;;;5093846;28;20228;-60
2023/03/19 01:13:36;;;;;;;2.60;2.00;;;11.10;99.90;;;;;;5094252;28;20703;-60
2023/03/19 01:16:03;;;;;;;3.37;2.77;;;11.20;99.90;;;;;;5093741;28;20289;-60
2023/03/19 01:18:30;;;;;;;4.77;2.37;;;11.10;99.90;;;;;;5095961;28;20258;-60
2023/03/19 01:20:57;;;;;;;3.33;2.27;;;11.10;99.90;;;;;;5097981;28;20236;-60
2023/03/19 01:23:25;;;;;;;3.37;2.40;;;11.10;99.90;;;;;;5097876;28;20233;-59
2023/03/19 01:25:51;;;;;;;3.83;2.47;;;11.00;99.90;;;;;;5094554;28;20245;-61
2023/03/19 01:28:19;;;;;;;2.90;2.27;;;11.10;99.90;;;;;;5096578;28;20295;-59
2023/03/19 01:30:46;;;;;;;3.23;2.43;;;11.10;99.90;;;;;;5096796;28;20212;-59
2023/03/19 01:33:14;;;;;;;3.17;2.60;;;11.00;99.90;;;;;;5097104;28;20202;-59
2023/03/19 01:35:42;;;;;;;3.80;2.30;;;11.10;99.90;;;;;;5096790;28;20321;-59
2023/03/19 01:38:09;;;;;;;4.83;2.33;;;11.10;99.90;;;;;;5099181;28;20613;-59
2023/03/19 01:40:42;;;;;;;3.03;2.70;;;11.10;99.90;;;;;;5095302;28;20299;-60
2023/03/19 01:43:16;;;;;;;4.07;3.00;;;11.10;99.90;;;;;;5097960;28;20198;-59
2023/03/19 01:45:44;;;;;;;3.37;3.07;;;11.10;99.90;;;;;;5096659;28;20679;-59
2023/03/19 01:48:37;;;;;;;3.83;2.40;;;11.20;99.90;;;;;;5096700;28;20213;-59
2023/03/19 01:51:07;;;;;;;4.53;2.93;;;11.10;99.90;;;;;;5090286;28;20210;-60
2023/03/19 01:53:36;;;;;;;4.67;3.10;;;11.10;99.90;;;;;;5098712;28;20696;-59
2023/03/19 01:56:15;;;;;;;5.53;3.00;;;11.10;99.90;;;;;;5097458;28;20676;-60
2023/03/19 01:58:45;;;;;;;5.17;3.37;;;11.10;99.90;;;;;;5111678;28;20621;-60
2023/03/19 02:01:14;;;;;;;3.57;2.90;;;11.10;99.90;;;;;;5096865;28;20727;-60
2023/03/19 02:03:41;;;;;;;7.80;3.47;;;11.10;99.90;;;;;;5098425;28;20225;-60
2023/03/19 02:06:11;;;;;;;3.93;3.20;;;11.10;99.90;;;;;;5097115;28;20196;-60
2023/03/19 02:08:39;;;;;;;6.47;3.33;;;11.10;99.90;;;;;;5098872;28;20197;-60
2023/03/19 02:11:06;;;;;;;4.63;3.17;;;11.10;99.90;;;;;;5098932;28;20255;-60
2023/03/19 02:13:34;;;;;;;5.17;3.57;;;11.10;99.90;;;;;;5096039;28;20289;-60
2023/03/19 02:16:01;;;;;;;5.00;3.37;;;11.10;99.90;;;;;;5098180;28;21192;-60
2023/03/19 02:18:30;;;;;;;4.77;3.43;;;11.10;99.90;;;;;;5096784;28;20230;-61
2023/03/19 02:21:17;;;;;;;5.20;3.77;;;11.10;99.90;;;;;;5096032;28;20213;-61
2023/03/19 02:24:01;;;;;;;5.60;3.27;;;11.10;99.90;;;;;;5096039;28;20205;-61
2023/03/19 02:26:29;;;;;;;4.47;3.63;;;11.10;99.90;;;;;;5096606;28;20231;-61
2023/03/19 02:28:56;;;;;;;4.13;3.33;;;11.10;99.90;;;;;;5080292;28;20653;-61
2023/03/19 02:31:23;;;;;;;5.93;3.40;;;11.10;99.90;;;;;;5097965;28;20550;-61
2023/03/19 02:34:02;;;;;;;7.37;4.23;;;11.10;99.90;;;;;;5097788;28;20825;-61
2023/03/19 02:36:36;;;;;;;5.80;3.80;;;11.10;99.90;;;;;;5096045;28;20247;-61
2023/03/19 02:39:07;;;;;;;5.40;3.90;;;11.10;99.90;;;;;;5095309;28;20252;-61
2023/03/19 02:41:38;;;;;;;4.80;4.10;;;11.10;99.90;;;;;;5093970;28;20708;-60
2023/03/19 02:44:06;;;;;;;6.63;3.90;;;11.00;99.90;;;;;;5092800;28;20759;-60
2023/03/19 02:46:33;;;;;;;5.27;4.23;;;11.00;99.90;;;;;;5095059;28;20212;-61
2023/03/19 02:49:00;;;;;;;4.57;3.93;;;11.00;99.90;;;;;;5091846;28;20263;-60
2023/03/19 02:51:27;;;;;;;4.30;3.60;;;11.00;99.90;;;;;;5091237;28;20738;-60
2023/03/19 02:53:54;;;;;;;5.00;3.77;;;11.00;99.90;;;;;;5095932;28;20603;-61
2023/03/19 02:56:21;;;;;;;6.53;4.73;;;11.00;99.90;;;;;;5091237;28;20266;-60
2023/03/19 02:58:47;;;;;;;5.50;4.00;;;11.00;99.90;;;;;;5095617;28;20287;-60
2023/03/19 03:01:14;;;;;;;6.23;4.40;;;11.00;99.90;;;;;;5093424;28;20218;-61
2023/03/19 03:03:41;;;;;;;6.43;4.63;;;11.00;99.90;;;;;;5089835;28;20208;-61
2023/03/19 03:06:08;;;;;;;5.53;4.47;;;11.00;99.90;;;;;;5091871;28;21778;-61
2023/03/19 03:08:35;;;;;;;5.80;4.50;;;11.00;99.90;;;;;;5097350;28;20200;-61
2023/03/19 03:11:02;;;;;;;6.23;5.17;;;11.00;99.90;;;;;;5098647;28;20231;-61
2023/03/19 03:13:29;;;;;;;5.77;4.87;;;11.00;99.90;;;;;;5096746;27;21072;-61
2023/03/19 03:15:56;;;;;;;6.23;4.93;;;11.00;99.90;;;;;;5094786;28;20283;-62
2023/03/19 03:18:23;;;;;;;6.80;5.53;;;11.00;99.90;;;;;;5095590;28;20233;-61
2023/03/19 03:20:50;;;;;;;7.67;5.77;;;11.00;99.90;;;;;;5094296;28;20303;-61
2023/03/19 03:23:17;;;;;;;7.93;5.30;;;10.90;99.90;;;;;;5098694;28;20196;-61
2023/03/19 03:25:43;;;;;;;7.93;5.43;;;11.00;99.90;;;;;;5094403;28;20197;-61
2023/03/19 03:28:11;;;;;;;9.10;5.93;;;10.90;99.90;;;;;;5096883;28;20222;-62
2023/03/19 03:30:38;;;;;;;7.40;5.40;;;10.90;99.90;;;;;;5095694;28;20259;-61
2023/03/19 03:33:06;;;;;;;7.80;6.00;;;10.80;99.90;;;;;;5076688;28;20227;-61
2023/03/19 03:35:32;;;;;;;7.23;6.30;;;10.80;99.90;;;;;;5091568;28;20200;-61
2023/03/19 03:37:59;;;;;;;8.77;6.10;;;10.80;99.90;;;;;;5096834;28;20208;-61
2023/03/19 03:40:26;;;;;;;8.17;5.90;;;10.70;99.90;;;;;;5094840;28;20335;-61
2023/03/19 03:42:53;;;;;;;8.93;6.10;;;10.60;99.90;;;;;;5096071;28;20194;-61
2023/03/19 03:45:20;;;;;;;7.17;5.80;;;10.60;99.90;;;;;;5094816;28;20321;-61
2023/03/19 03:47:46;;;;;;;7.30;6.13;;;10.60;99.90;;;;;;5093523;28;20294;-61
2023/03/19 03:50:13;;;;;;;8.47;6.37;;;10.60;99.90;;;;;;5095020;28;20241;-60
2023/03/19 03:52:40;;;;;;;9.80;7.10;;;10.60;99.90;;;;;;5097553;28;20213;-60
2023/03/19 03:55:08;;;;;;;9.00;6.13;;;10.60;99.90;;;;;;5094380;28;20211;-60
2023/03/19 03:57:35;;;;;;;9.00;6.27;;;10.50;99.90;;;;;;5093593;28;20288;-60
2023/03/19 04:00:02;;;;;;;6.90;5.63;;;10.60;99.90;;;;;;5097251;28;20207;-60
2023/03/19 04:02:29;;;;;;;6.70;6.00;;;10.50;99.90;;;;;;5098464;28;20235;-60
2023/03/19 04:04:56;;;;;;;9.43;6.90;;;10.60;99.90;;;;;;5094928;28;20243;-60
2023/03/19 04:07:23;;;;;;;8.13;6.30;;;10.50;99.90;;;;;;5095824;28;20309;-60
2023/03/19 04:09:50;;;;;;;7.80;6.67;;;10.60;99.90;;;;;;5094792;28;20291;-60
2023/03/19 04:12:17;;;;;;;9.83;7.60;;;10.60;99.90;;;;;;5093956;28;20203;-60
2023/03/19 04:14:44;;;;;;;7.87;6.10;;;10.50;99.90;;;;;;5093000;28;20921;-61
2023/03/19 04:17:11;;;;;;;10.33;7.80;;;10.40;99.90;;;;;;5094034;28;20774;-60
2023/03/19 04:19:37;;;;;;;12.37;8.23;;;10.40;99.90;;;;;;5095099;28;20251;-60
2023/03/19 04:22:06;;;;;;;11.27;8.70;;;10.30;99.90;;;;;;5096750;28;20303;-60
2023/03/19 04:24:33;;;;;;;11.23;8.67;;;10.30;99.90;;;;;;5095160;28;20601;-60
2023/03/19 04:27:00;;;;;;;13.07;9.90;;;10.20;99.90;;;;;;5094579;28;20691;-60
2023/03/19 04:29:27;;;;;;;11.40;8.90;;;10.30;99.90;;;;;;5093979;28;20214;-60
2023/03/19 04:31:54;;;;;;;11.67;8.90;;;10.30;99.90;;;;;;5095175;28;21095;-60
2023/03/19 04:34:21;;;;;;;12.53;9.17;;;10.20;99.90;;;;;;5089579;28;20780;-61
2023/03/19 04:36:48;;;;;;;13.30;9.47;;;10.20;99.90;;;;;;5094721;28;20236;-61
2023/03/19 04:39:15;;;;;;;10.93;8.87;;;10.30;99.90;;;;;;5096823;28;20205;-60
2023/03/19 04:41:42;;;;;;;10.93;9.03;;;10.30;99.90;;;;;;5093164;28;20598;-60
2023/03/19 04:44:10;;;;;;;12.50;8.53;;;10.40;99.90;;;;;;5092641;28;20279;-59
2023/03/19 04:46:37;;;;;;;9.07;7.90;;;10.40;99.90;;;;;;5093433;28;20202;-58
2023/03/19 04:49:04;;;;;;;14.00;8.67;;;10.40;99.90;;;;;;5090915;28;22114;-58
2023/03/19 04:51:31;;;;;;;12.73;9.23;;;10.30;99.90;;;;;;5094017;28;20294;-58
2023/03/19 04:53:58;;;;;;;9.80;8.13;;;10.30;99.90;;;;;;5096355;28;20194;-58
2023/03/19 04:56:26;;;;;;;13.87;9.27;;;10.20;99.90;;;;;;5089345;28;20260;-58
2023/03/19 04:58:53;;;;;;;11.90;8.23;;;10.20;99.90;;;;;;5090993;28;20220;-62
2023/03/19 05:01:20;;;;;;;12.47;9.70;;;10.10;99.90;;;;;;5111088;27;20210;-58
2023/03/19 05:03:47;;;;;;;10.50;7.73;;;10.00;99.90;;;;;;5093312;28;20202;-58
2023/03/19 05:06:15;;;;;;;10.40;8.70;;;10.00;99.90;;;;;;5093513;28;20415;-58
2023/03/19 05:08:42;;;;;;;11.27;8.63;;;10.00;99.90;;;;;;5093405;28;20203;-58
2023/03/19 05:11:09;;;;;;;11.67;8.60;;;10.00;99.90;;;;;;5093428;28;20655;-58
2023/03/19 05:13:36;;;;;;;9.30;7.67;;;10.00;99.90;;;;;;5094547;28;20210;-58
2023/03/19 05:16:03;;;;;;;10.30;7.97;;;9.90;99.90;;;;;;5089610;28;20316;-58
2023/03/19 05:18:30;;;;;;;9.57;8.03;;;9.90;99.90;;;;;;5095385;28;20329;-58
2023/03/19 05:20:57;;;;;;;12.37;8.60;;;9.90;99.90;;;;;;5092684;28;20214;-58
2023/03/19 05:23:24;;;;;;;11.83;7.83;;;9.90;99.90;;;;;;5094231;28;20662;-58
2023/03/19 05:25:51;;;;;;;10.33;8.03;;;9.90;99.90;;;;;;5093694;28;20200;-58
2023/03/19 05:28:18;;;;;;;13.13;8.43;;;9.90;99.90;;;;;;5095023;28;20199;-58
2023/03/19 05:30:45;;;;;;;11.30;8.57;;;9.90;99.90;;;;;;5094595;28;20628;-58
2023/03/19 05:33:12;;;;;;;11.23;8.00;;;9.90;99.90;;;;;;5094590;28;20209;-58
2023/03/19 05:35:39;;;;;;;12.07;8.63;;;9.80;99.90;;;;;;5088792;28;20209;-58
2023/03/19 05:38:07;;;;;;;10.77;7.80;;;9.80;99.90;;;;;;5095786;28;20212;-58
2023/03/19 05:40:34;;;;;;;10.47;8.07;;;9.70;99.90;;;;;;5076927;28;20206;-58
2023/03/19 05:43:02;;;;;;;12.47;7.93;;;9.60;99.90;;;;;;5090345;28;20287;-59
2023/03/19 05:45:29;;;;;;;13.00;8.67;;;9.70;99.90;;;;;;5089283;28;21820;-64
2023/03/19 05:47:56;;;;;;;11.27;8.93;;;9.70;99.90;;;;;;5094244;28;20635;-58
2023/03/19 05:50:23;;;;;;;10.73;8.07;;;9.70;99.90;;;;;;5091751;28;20204;-58
2023/03/19 05:52:50;;;;;;;10.53;7.77;;;9.70;99.90;;;;;;5093515;28;20211;-58
2023/03/19 05:55:17;;;;;;;9.63;7.57;;;9.60;99.90;;;;;;5091889;28;20213;-59
2023/03/19 05:57:44;;;;;;;13.43;7.63;;;9.60;99.90;;;;;;5094868;28;20203;-58
2023/03/19 06:00:12;;;;;;;8.67;7.37;;;9.60;99.90;;;;;;5091380;28;20246;-58
2023/03/19 06:02:39;;;;;;;10.67;7.57;;;9.60;99.90;;;;;;5093426;28;20369;-58
2023/03/19 06:05:07;;;;;;;10.83;7.07;;;9.50;99.90;;;;;;5091231;28;20288;-59
2023/03/19 06:07:35;;;;;;;8.87;6.93;;;9.50;99.90;;;;;;5075201;28;20221;-57
2023/03/19 06:10:03;;;;;;;10.87;7.10;;;9.50;99.90;;;;;;5091465;28;21535;-58
2023/03/19 06:12:30;;;;;;;9.30;6.50;;;9.50;99.90;;;;;;5092671;28;20289;-58
2023/03/19 06:14:56;;;;;;;10.17;6.70;;;9.50;99.90;;;;;;5091708;28;20622;-59
2023/03/19 06:17:23;;;;;;;9.07;6.43;;;9.50;99.90;;;;;;5090932;28;20726;-60
2023/03/19 06:19:50;;;;;;;9.40;6.17;;;9.70;99.90;;;;;;5092684;28;20206;-60
2023/03/19 06:22:17;;;;;;;8.37;6.90;;;9.70;99.90;;;;;;5091512;28;20309;-59
2023/03/19 06:24:44;;;;;;;7.70;6.00;;;9.60;99.90;;;;;;5093696;28;20200;-60
2023/03/19 06:27:11;;;;;;;10.57;7.13;;;9.50;99.90;;;;;;5092667;28;20612;-60
2023/03/19 06:29:38;;;;;;;8.13;6.80;;;9.50;99.90;;;;;;5093881;28;20225;-61
2023/03/19 06:32:05;;;;;;;11.57;6.53;;;9.40;99.90;;;;;;5091229;28;22316;-60
2023/03/19 06:34:32;;;;;;;9.33;6.93;;;9.50;99.90;;;;;;5090432;28;20259;-61
2023/03/19 06:36:59;;;;;;;10.90;6.27;;;9.60;99.90;;;;;;5094182;28;20261;-63
2023/03/19 06:39:26;;;;;;;9.20;7.43;;;9.70;99.90;;;;;;5095418;28;20218;-65
2023/03/19 06:41:53;;;;;;;9.00;7.13;;;9.70;99.90;;;;;;5098228;28;20243;-60
2023/03/19 06:44:20;;;;;;;10.23;7.13;;;9.90;99.90;;;;;;5098085;28;20606;-60
2023/03/19 06:46:46;;;;;;;10.37;7.00;;;9.80;99.90;;;;;;5097639;28;20288;-60
2023/03/19 06:49:14;;;;;;;9.70;6.83;;;10.00;99.90;;;;;;5096424;28;20279;-60
2023/03/19 06:51:41;;;;;;;9.97;6.97;;;10.00;99.90;;;;;;5093605;28;20268;-60
2023/03/19 06:54:08;;;;;;;7.80;6.40;;;10.00;99.90;;;;;;5095502;28;20195;-60
2023/03/19 06:56:35;;;;;;;8.40;7.00;;;10.10;99.90;;;;;;5091882;28;20706;-60
2023/03/19 06:59:01;;;;;;;9.87;6.50;;;10.10;99.90;;;;;;5096311;28;22558;-60
2023/03/19 07:01:28;;;;;;;9.93;6.63;;;10.10;99.90;;;;;;5089761;28;20308;-60
2023/03/19 07:03:56;;;;;;;7.67;5.97;;;10.30;99.90;;;;;;5094568;28;20250;-60
2023/03/19 07:06:23;;;;;;;11.90;6.47;;;10.30;99.90;;;;;;5095308;28;20202;-58
2023/03/19 07:08:50;;;;;;;10.63;5.83;;;10.30;99.90;;;;;;5098111;28;20205;-58
2023/03/19 07:11:16;;;;;;;9.03;6.10;;;10.30;99.90;;;;;;5096866;28;20301;-58
2023/03/19 07:13:43;;;;;;;7.83;5.77;;;10.50;99.90;;;;;;5096208;28;20674;-59
2023/03/19 07:16:10;;;;;;;8.73;5.83;;;10.50;99.90;;;;;;5093508;28;21247;-65
2023/03/19 07:18:37;;;;;;;11.23;5.63;;;10.60;99.90;;;;;;5099084;28;20231;-60
2023/03/19 07:21:04;;;;;;;10.30;6.40;;;10.60;99.90;;;;;;5098637;28;20575;-59
2023/03/19 07:23:31;;;;;;;7.97;5.27;;;10.80;99.90;;;;;;5096596;28;20241;-59
2023/03/19 07:25:58;;;;;;;8.17;5.30;;;10.90;99.90;;;;;;5096434;28;20557;-61
2023/03/19 07:28:25;;;;;;;9.13;5.30;;;11.00;99.90;;;;;;5092452;28;20230;-59
2023/03/19 07:30:52;;;;;;;9.20;5.57;;;11.00;99.90;;;;;;5094922;28;20208;-58
2023/03/19 07:33:20;;;;;;;10.77;5.23;;;11.10;99.90;;;;;;5090582;28;20306;-59
2023/03/19 07:35:47;;;;;;;10.33;4.90;;;11.30;99.90;;;;;;5086220;27;20653;-59
2023/03/19 07:38:15;;;;;;;8.53;5.80;;;11.30;99.90;;;;;;5096826;28;20669;-59
2023/03/19 07:40:42;;;;;;;7.53;4.83;;;11.00;99.90;;;;;;5093815;28;20555;-59
2023/03/19 07:43:24;;;;;;;10.03;4.87;;;11.00;99.90;;;;;;5095772;28;20208;-59
2023/03/19 07:45:52;;;;;;;7.77;5.23;;;11.10;99.90;;;;;;5087535;28;20200;-59
2023/03/19 07:48:18;;;;;;;8.17;4.70;;;11.10;99.90;;;;;;5090657;28;20238;-59
2023/03/19 07:50:45;;;;;;;9.53;4.90;;;11.20;99.90;;;;;;5089172;28;20291;-59
2023/03/19 07:53:12;;;;;;;6.57;4.73;;;11.30;99.90;;;;;;5095214;28;20340;-59
2023/03/19 07:55:39;;;;;;;9.47;5.77;;;11.50;99.90;;;;;;5093124;28;20215;-59
2023/03/19 07:58:06;;;;;;;8.63;5.17;;;11.40;99.90;;;;;;5091265;28;20206;-59
2023/03/19 08:00:33;;;;;;;8.67;6.03;;;11.60;99.90;;;;;;5091774;28;20264;-59
2023/03/19 08:03:00;;;;;;;12.53;6.80;;;11.50;99.90;;;;;;4727379;28;10000376;-59
2023/03/19 08:05:27;;;;;;;11.17;7.00;;;11.70;99.90;;;;;;5083667;28;20207;-63
2023/03/19 08:07:54;;;;;;;11.50;7.53;;;12.00;99.90;;;;;;5091181;28;20225;-59
2023/03/19 08:10:21;;;;;;;10.10;7.57;;;12.00;99.90;;;;;;5093238;28;20292;-59
2023/03/19 08:12:48;;;;;;;13.77;7.53;;;12.20;99.90;;;;;;5091484;28;20579;-59
2023/03/19 08:15:15;;;;;;;10.50;7.20;;;12.00;99.90;;;;;;5089338;28;20283;-59
2023/03/19 08:17:42;;;;;;;11.30;6.70;;;11.90;99.90;;;;;;5094608;28;20292;-59
2023/03/19 08:20:11;;;;;;;10.27;7.00;;;12.00;99.90;;;;;;5092295;28;20346;-59
2023/03/19 08:22:39;;;;;;;14.70;9.03;;;11.90;99.90;;;;;;5095793;27;20233;-59
2023/03/19 08:25:06;;;;;;;16.93;8.23;;;11.90;99.90;;;;;;5090537;28;20273;-59
2023/03/19 08:27:34;;;;;;;14.87;9.70;;;12.10;99.90;;;;;;5094674;28;20204;-59
2023/03/19 08:30:06;;;;;;;15.90;9.47;;;11.90;99.90;;;;;;5096948;28;20196;-62
2023/03/19 08:32:33;;;;;;;17.37;9.17;;;11.60;99.90;;;;;;5091001;28;20313;-59
2023/03/19 08:35:00;;;;;;;14.50;9.23;;;11.60;99.90;;;;;;5088597;28;20210;-59
2023/03/19 08:37:27;;;;;;;15.23;9.03;;;11.50;99.90;;;;;;5094205;28;20429;-59
2023/03/19 08:39:54;;;;;;;18.87;10.00;;;11.40;99.90;;;;;;5094837;28;20577;-59
2023/03/19 08:42:21;;;;;;;13.03;8.87;;;11.30;99.90;;;;;;5096044;28;20319;-59
2023/03/19 08:44:49;;;;;;;13.07;10.07;;;11.30;99.90;;;;;;5091931;28;20698;-60
2023/03/19 08:47:16;;;;;;;13.67;9.87;;;11.50;99.90;;;;;;5091298;28;20232;-60
2023/03/19 08:49:43;;;;;;;18.83;12.80;;;11.70;99.90;;;;;;5092027;28;20201;-62
2023/03/19 08:52:12;;;;;;;20.47;12.60;;;11.70;99.90;;;;;;5091469;28;20204;-61
2023/03/19 08:54:39;;;;;;;19.47;13.57;;;11.70;99.90;;;;;;5094113;28;20814;-60
2023/03/19 08:57:06;;;;;;;17.20;12.93;;;11.80;99.90;;;;;;5091492;28;21090;-61
2023/03/19 08:59:33;;;;;;;21.27;14.07;;;11.90;99.90;;;;;;5092296;27;20297;-61
2023/03/19 09:02:00;;;;;;;21.20;14.20;;;11.80;99.90;;;;;;5093637;28;20249;-58
2023/03/19 09:04:28;;;;;;;19.60;13.47;;;11.70;99.90;;;;;;5089737;28;20287;-60
2023/03/19 09:06:54;;;;;;;17.90;13.10;;;11.80;99.90;;;;;;5084450;27;20200;-59
2023/03/19 09:09:23;;;;;;;18.00;13.60;;;11.90;99.90;;;;;;5088637;28;20294;-58
2023/03/19 09:11:50;;;;;;;19.07;14.27;;;11.70;99.90;;;;;;5090644;28;20234;-60
2023/03/19 09:14:18;;;;;;;23.20;13.93;;;11.60;99.90;;;;;;5086158;28;20261;-59
2023/03/19 09:16:45;;;;;;;23.57;15.10;;;11.50;99.90;;;;;;5062709;28;20766;-59
2023/03/19 09:19:13;;;;;;;23.17;16.27;;;11.50;99.90;;;;;;5088711;28;20310;-59
2023/03/19 09:21:41;;;;;;;20.63;15.87;;;11.60;99.90;;;;;;5092793;28;21000;-59
2023/03/19 09:24:08;;;;;;;24.80;16.20;;;11.60;99.90;;;;;;5086947;28;20234;-60
2023/03/19 09:26:35;;;;;;;21.80;15.77;;;11.80;99.90;;;;;;5100643;27;20225;-59
2023/03/19 09:29:02;;;;;;;22.30;15.97;;;11.70;99.90;;;;;;5086126;28;20811;-59
2023/03/19 09:31:29;;;;;;;23.87;16.93;;;11.70;99.90;;;;;;5085269;28;20203;-59
2023/03/19 09:33:56;;;;;;;23.77;17.30;;;11.80;99.90;;;;;;5081565;28;20205;-59
2023/03/19 09:36:24;;;;;;;24.87;17.40;;;11.80;99.90;;;;;;5086254;28;20600;-59
2023/03/19 09:38:51;;;;;;;26.87;17.37;;;12.10;99.90;;;;;;5073788;28;20321;-60
2023/03/19 09:41:50;;;;;;;24.43;15.83;;;12.10;99.90;;;;;;5096685;28;20252;-59
2023/03/19 09:44:38;;;;;;;26.33;16.10;;;12.50;99.90;;;;;;5096527;28;20269;-60
2023/03/19 09:47:27;;;;;;;23.07;15.90;;;12.70;99.90;;;;;;5093452;28;20196;-59
2023/03/19 09:49:57;;;;;;;24.00;15.27;;;13.00;99.90;;;;;;5093262;28;20286;-60
2023/03/19 09:52:48;;;;;;;18.07;13.13;;;13.10;99.90;;;;;;5094043;28;20207;-59
2023/03/19 09:55:24;;;;;;;17.90;12.17;;;13.70;99.90;;;;;;5090444;28;20323;-59
2023/03/19 09:57:54;;;;;;;19.23;11.47;;;14.20;99.90;;;;;;5094549;28;20660;-60
2023/03/19 10:00:28;;;;;;;17.27;11.83;;;14.10;99.90;;;;;;5097109;28;20711;-59
2023/03/19 10:03:14;;;;;;;16.67;11.63;;;13.90;99.90;;;;;;5089547;28;20224;-59
2023/03/19 10:06:07;;;;;;;15.57;11.03;;;14.30;99.90;;;;;;5095541;28;20655;-61
2023/03/19 10:08:38;;;;;;;15.47;10.23;;;14.40;99.90;;;;;;5095193;28;20219;-60
2023/03/19 10:11:31;;;;;;;12.87;9.83;;;14.10;99.90;;;;;;5094944;28;20287;-60
2023/03/19 10:14:35;;;;;;;16.47;8.97;;;14.20;99.90;;;;;;5093156;28;20618;-60
2023/03/19 10:17:05;;;;;;;13.80;9.20;;;13.50;99.90;;;;;;5100007;28;20296;-60
2023/03/19 10:19:53;;;;;;;14.03;8.50;;;13.50;99.90;;;;;;5099698;28;20209;-60
2023/03/19 10:22:27;;;;;;;15.77;9.23;;;13.50;99.90;;;;;;5100505;28;20732;-59
2023/03/19 10:24:56;;;;;;;14.50;9.13;;;13.30;99.90;;;;;;5102049;28;20843;-59
2023/03/19 10:27:27;;;;;;;16.43;9.23;;;13.60;99.90;;;;;;5097464;28;20212;-59
2023/03/19 10:29:55;;;;;;;16.10;10.70;;;13.60;99.90;;;;;;5100790;28;20202;-59
2023/03/19 10:32:41;;;;;;;14.97;9.90;;;13.30;99.90;;;;;;5101197;28;20209;-59
2023/03/19 10:35:21;;;;;;;16.20;8.70;;;13.10;99.90;;;;;;5089258;28;20204;-59
2023/03/19 10:37:54;;;;;;;17.13;11.50;;;13.40;99.90;;;;;;5099620;28;20260;-59
2023/03/19 10:40:25;;;;;;;12.03;9.53;;;13.60;99.90;;;;;;5097943;28;20657;-59
2023/03/19 10:43:11;;;;;;;15.43;9.90;;;13.70;99.90;;;;;;5100323;28;20666;-59
2023/03/19 10:45:39;;;;;;;13.90;10.53;;;13.70;99.90;;;;;;5098671;28;20238;-59
2023/03/19 10:48:14;;;;;;;16.57;9.67;;;13.70;99.90;;;;;;5098855;28;20201;-59
2023/03/19 10:50:53;;;;;;;12.23;9.57;;;13.70;99.90;;;;;;5097256;28;20235;-59
2023/03/19 10:53:36;;;;;;;15.57;10.13;;;13.40;99.90;;;;;;5099586;28;20250;-59
2023/03/19 10:56:22;;;;;;;16.43;9.77;;;13.20;99.90;;;;;;5097523;28;20206;-60
2023/03/19 10:58:56;;;;;;;14.47;9.77;;;13.30;99.90;;;;;;5100145;28;20203;-60
2023/03/19 11:01:27;;;;;;;16.30;11.53;;;13.40;99.90;;;;;;5098352;28;20211;-59
2023/03/19 11:03:57;;;;;;;18.60;11.13;;;13.40;99.90;;;;;;5097119;28;20668;-62
2023/03/19 11:06:33;;;;;;;15.83;11.13;;;13.50;99.90;;;;;;5098360;28;20362;-64
2023/03/19 11:09:06;;;;;;;20.77;13.03;;;13.60;99.90;;;;;;5101771;28;20217;-59
2023/03/19 11:11:36;;;;;;;20.00;12.77;;;13.80;99.90;;;;;;5099027;27;20309;-61
2023/03/19 11:14:34;;;;;;;21.93;11.97;;;13.90;99.90;;;;;;5098859;28;20214;-59
2023/03/19 11:17:20;;;;;;;17.03;11.33;;;14.10;99.90;;;;;;5098041;28;20223;-59
2023/03/19 11:19:58;;;;;;;15.57;11.97;;;13.80;99.90;;;;;;5099159;28;20287;-59
2023/03/19 11:22:31;;;;;;;16.47;12.13;;;14.10;99.90;;;;;;5098192;28;20237;-60
2023/03/19 11:25:21;;;;;;;16.77;11.67;;;14.20;99.90;;;;;;5100749;27;21105;-60
2023/03/19 11:27:58;;;;;;;13.90;11.33;;;14.20;99.90;;;;;;5093983;28;20214;-60
2023/03/19 11:30:32;;;;;;;15.37;11.50;;;14.20;99.90;;;;;;5100383;28;20273;-60
2023/03/19 11:33:05;;;;;;;20.43;13.20;;;13.80;99.90;;;;;;5098714;28;20581;-60
2023/03/19 11:35:40;;;;;;;17.77;12.30;;;13.60;99.90;;;;;;5096071;28;20213;-58
2023/03/19 11:38:23;;;;;;;21.87;13.03;;;13.80;99.90;;;;;;5098383;28;20211;-58
2023/03/19 11:40:51;;;;;;;15.77;12.67;;;14.00;99.90;;;;;;5095717;28;20229;-61
2023/03/19 11:43:37;;;;;;;17.60;12.87;;;13.60;99.90;;;;;;5100081;28;20793;-58
2023/03/19 11:46:26;;;;;;;15.67;12.43;;;13.50;99.90;;;;;;5095660;28;20201;-58
2023/03/19 11:49:02;;;;;;;18.20;11.90;;;13.70;99.90;;;;;;5098424;28;20660;-58
2023/03/19 11:52:04;;;;;;;16.57;13.17;;;14.00;99.90;;;;;;5097126;28;20753;-58
2023/03/19 11:54:48;;;;;;;18.10;13.53;;;14.10;99.90;;;;;;5055296;28;20509;-57
2023/03/19 11:57:24;;;;;;;15.47;12.30;;;14.20;99.90;;;;;;5097409;28;20222;-58
2023/03/19 12:00:24;;;;;;;19.30;12.87;;;14.30;99.90;;;;;;5095935;28;20302;-57
2023/03/19 12:03:06;;;;;;;18.50;13.00;;;14.20;99.90;;;;;;5077230;28;20318;-57
2023/03/19 12:05:58;;;;;;;14.53;11.17;;;14.20;99.90;;;;;;5092243;28;20885;-58
2023/03/19 12:08:43;;;;;;;17.00;11.87;;;14.20;99.90;;;;;;5096850;28;20609;-60
2023/03/19 12:11:19;;;;;;;19.57;11.97;;;14.50;99.90;;;;;;5094965;28;20237;-61
2023/03/19 12:13:49;;;;;;;16.93;13.20;;;15.10;99.90;;;;;;5095714;28;20216;-60
2023/03/19 12:16:24;;;;;;;15.07;10.97;;;15.00;99.90;;;;;;5092070;28;20209;-60
2023/03/19 12:19:25;;;;;;;14.57;11.17;;;14.70;99.90;;;;;;5092272;28;20277;-60
2023/03/19 12:22:13;;;;;;;15.73;10.00;;;14.80;99.90;;;;;;5091521;28;20298;-61
2023/03/19 12:24:56;;;;;;;16.03;11.23;;;15.20;99.90;;;;;;5093232;28;20210;-60
2023/03/19 12:27:43;;;;;;;16.27;10.03;;;15.30;99.90;;;;;;5092873;28;20201;-60
2023/03/19 12:30:38;;;;;;;13.10;9.67;;;15.60;99.90;;;;;;5095786;28;20992;-61
2023/03/19 12:33:19;;;;;;;17.90;9.53;;;16.10;99.90;;;;;;5091825;28;20569;-60
2023/03/19 12:35:51;;;;;;;15.67;10.67;;;16.40;99.90;;;;;;5089668;28;20296;-61
2023/03/19 12:38:33;;;;;;;16.30;9.63;;;16.80;99.90;;;;;;5094104;28;20728;-60
2023/03/19 12:41:33;;;;;;;14.00;9.87;;;16.90;99.90;;;;;;5092076;28;20200;-60
2023/03/19 12:44:27;;;;;;;15.63;9.83;;;17.10;99.90;;;;;;5077733;28;20234;-61
2023/03/19 12:47:13;;;;;;;13.77;9.43;;;16.90;99.90;;;;;;5090967;28;20206;-60
2023/03/19 12:49:45;;;;;;;14.30;9.70;;;17.60;99.90;;;;;;5090763;27;20201;-60
2023/03/19 12:52:17;;;;;;;11.97;8.80;;;17.80;99.90;;;;;;5094718;28;20613;-60
2023/03/19 12:54:51;;;;;;;13.10;8.00;;;17.80;99.90;;;;;;5090085;28;20266;-61
2023/03/19 12:57:41;;;;;;;9.47;8.10;;;17.70;99.90;;;;;;5093241;28;20284;-61
2023/03/19 13:00:34;;;;;;;14.80;9.03;;;18.10;99.90;;;;;;5095787;28;20202;-61